sensor_id;sensor_type;location;lat;lon;timestamp;pressure;altitude;pressure_sealevel;temperature;humidity
54453;BME280;40363;52.270;10.546;2023-03-04T00:01:14;78146.28;;;-147.06;91.68
54453;BME280;40363;52.270;10.546;2023-03-04T00:03:41;78131.88;;;-147.06;90.68
54453;BME280;40363;52.270;10.546;2023-03-04T00:06:08;78123.66;;;-147.06;90.60
54453;BME280;40363;52.270;10.546;2023-03-04T00:08:34;78125.72;;;-147.06;90.41
54453;BME280;40363;52.270;10.546;2023-03-04T00:11:02;78117.47;;;-147.06;90.18
54453;BME280;40363;52.270;10.546;2023-03-04T00:13:29;78105.16;;;-147.06;89.70
54453;BME280;40363;52.270;10.546;2023-03-04T00:15:57;78107.19;;;-147.06;89.54
54453;BME280;40363;52.270;10.546;2023-03-04T00:18:23;78105.16;;;-147.06;89.39
54453;BME280;40363;52.270;10.546;2023-03-04T00:20:50;78096.91;;;-147.06;89.12
54453;BME280;40363;52.270;10.546;2023-03-04T00:23:17;78098.97;;;-147.06;88.93
54453;BME280;40363;52.270;10.546;2023-03-04T00:25:44;78098.97;;;-147.06;89.18
54453;BME280;40363;52.270;10.546;2023-03-04T00:28:10;78084.59;;;-147.06;89.03
54453;BME280;40363;52.270;10.546;2023-03-04T00:30:37;78084.59;;;-147.06;88.80
54453;BME280;40363;52.270;10.546;2023-03-04T00:33:05;78074.31;;;-147.06;88.53
54453;BME280;40363;52.270;10.546;2023-03-04T00:35:32;78072.25;;;-147.06;88.26
54453;BME280;40363;52.270;10.546;2023-03-04T00:37:58;78068.13;;;-147.06;88.29
54453;BME280;40363;52.270;10.546;2023-03-04T00:40:25;78059.91;;;-147.06;88.35
54453;BME280;40363;52.270;10.546;2023-03-04T00:42:52;78061.97;;;-147.06;87.82
54453;BME280;40363;52.270;10.546;2023-03-04T00:45:18;78043.47;;;-147.06;87.53
54453;BME280;40363;52.270;10.546;2023-03-04T00:47:45;78035.22;;;-147.06;86.96
54453;BME280;40363;52.270;10.546;2023-03-04T00:50:13;78018.78;;;-147.06;86.70
54453;BME280;40363;52.270;10.546;2023-03-04T00:52:40;78018.78;;;-147.06;86.30
54453;BME280;40363;52.270;10.546;2023-03-04T00:55:08;78012.63;;;-147.06;86.22
54453;BME280;40363;52.270;10.546;2023-03-04T00:57:34;78014.66;;;-147.06;86.08
54453;BME280;40363;52.270;10.546;2023-03-04T01:00:01;78000.28;;;-147.06;86.14
54453;BME280;40363;52.270;10.546;2023-03-04T01:02:29;78006.44;;;-147.06;85.96
54453;BME280;40363;52.270;10.546;2023-03-04T01:04:55;78002.34;;;-147.06;85.99
54453;BME280;40363;52.270;10.546;2023-03-04T01:07:23;77994.09;;;-147.06;85.83
54453;BME280;40363;52.270;10.546;2023-03-04T01:09:50;77998.22;;;-147.06;85.91
54453;BME280;40363;52.270;10.546;2023-03-04T01:12:17;77990.00;;;-147.06;85.77
54453;BME280;40363;52.270;10.546;2023-03-04T01:14:43;77990.00;;;-147.06;85.82
54453;BME280;40363;52.270;10.546;2023-03-04T01:17:10;77983.81;;;-147.06;85.44
54453;BME280;40363;52.270;10.546;2023-03-04T01:19:37;77979.72;;;-147.06;85.55
54453;BME280;40363;52.270;10.546;2023-03-04T01:22:03;77977.66;;;-147.06;85.50
54453;BME280;40363;52.270;10.546;2023-03-04T01:24:31;77973.56;;;-147.06;85.67
54453;BME280;40363;52.270;10.546;2023-03-04T01:26:58;77971.50;;;-147.06;85.55
54453;BME280;40363;52.270;10.546;2023-03-04T01:29:25;77977.66;;;-147.06;85.76
54453;BME280;40363;52.270;10.546;2023-03-04T01:31:51;77977.66;;;-147.06;85.94
54453;BME280;40363;52.270;10.546;2023-03-04T01:34:18;77973.56;;;-147.06;85.80
54453;BME280;40363;52.270;10.546;2023-03-04T01:36:45;77963.28;;;-147.06;85.85
54453;BME280;40363;52.270;10.546;2023-03-04T01:39:11;77957.09;;;-147.06;85.71
54453;BME280;40363;52.270;10.546;2023-03-04T01:41:40;77959.16;;;-147.06;85.77
54453;BME280;40363;52.270;10.546;2023-03-04T01:44:08;77953.00;;;-147.06;85.76
54453;BME280;40363;52.270;10.546;2023-03-04T01:46:36;77950.94;;;-147.06;85.71
54453;BME280;40363;52.270;10.546;2023-03-04T01:49:05;77936.53;;;-147.06;85.69
54453;BME280;40363;52.270;10.546;2023-03-04T01:51:32;77932.44;;;-147.06;85.51
54453;BME280;40363;52.270;10.546;2023-03-04T01:53:58;77932.44;;;-147.06;85.68
54453;BME280;40363;52.270;10.546;2023-03-04T01:56:28;77920.09;;;-147.06;85.54
54453;BME280;40363;52.270;10.546;2023-03-04T01:59:17;77911.88;;;-147.06;85.60
54453;BME280;40363;52.270;10.546;2023-03-04T02:01:45;77907.75;;;-147.06;85.46
54453;BME280;40363;52.270;10.546;2023-03-04T02:04:13;77915.97;;;-147.06;85.73
54453;BME280;40363;52.270;10.546;2023-03-04T02:06:41;77911.88;;;-147.06;85.62
54453;BME280;40363;52.270;10.546;2023-03-04T02:09:09;77907.75;;;-147.06;85.94
54453;BME280;40363;52.270;10.546;2023-03-04T02:11:37;77911.88;;;-147.06;85.95
54453;BME280;40363;52.270;10.546;2023-03-04T02:14:04;77909.81;;;-147.06;85.99
54453;BME280;40363;52.270;10.546;2023-03-04T02:16:33;77903.63;;;-147.06;85.95
54453;BME280;40363;52.270;10.546;2023-03-04T02:19:00;77891.31;;;-147.06;85.73
54453;BME280;40363;52.270;10.546;2023-03-04T02:21:28;77885.13;;;-147.06;85.57
54453;BME280;40363;52.270;10.546;2023-03-04T02:24:02;77878.97;;;-147.06;85.88
54453;BME280;40363;52.270;10.546;2023-03-04T02:26:31;77885.13;;;-147.06;85.91
54453;BME280;40363;52.270;10.546;2023-03-04T02:29:00;77889.25;;;-147.06;86.17
54453;BME280;40363;52.270;10.546;2023-03-04T02:31:30;77887.19;;;-147.06;86.37
54453;BME280;40363;52.270;10.546;2023-03-04T02:33:58;77883.06;;;-147.06;86.33
54453;BME280;40363;52.270;10.546;2023-03-04T02:36:26;77878.97;;;-147.06;86.15
54453;BME280;40363;52.270;10.546;2023-03-04T02:38:54;77874.84;;;-147.06;86.22
54453;BME280;40363;52.270;10.546;2023-03-04T02:41:23;77881.03;;;-147.06;86.44
54453;BME280;40363;52.270;10.546;2023-03-04T02:43:54;77870.75;;;-147.06;86.40
54453;BME280;40363;52.270;10.546;2023-03-04T02:46:22;77874.84;;;-147.06;86.70
54453;BME280;40363;52.270;10.546;2023-03-04T02:48:49;77872.81;;;-147.06;86.73
54453;BME280;40363;52.270;10.546;2023-03-04T02:51:16;77866.63;;;-147.06;86.79
54453;BME280;40363;52.270;10.546;2023-03-04T02:53:43;77854.28;;;-147.06;86.71
54453;BME280;40363;52.270;10.546;2023-03-04T02:56:09;77862.50;;;-147.06;86.90
54453;BME280;40363;52.270;10.546;2023-03-04T02:58:36;77862.50;;;-147.06;87.14
54453;BME280;40363;52.270;10.546;2023-03-04T03:01:05;77860.47;;;-147.06;87.21
54453;BME280;40363;52.270;10.546;2023-03-04T03:03:32;77854.28;;;-147.06;87.18
54453;BME280;40363;52.270;10.546;2023-03-04T03:05:58;77858.41;;;-147.06;87.31
54453;BME280;40363;52.270;10.546;2023-03-04T03:08:25;77858.41;;;-147.06;87.65
54453;BME280;40363;52.270;10.546;2023-03-04T03:10:52;77848.13;;;-147.06;87.63
54453;BME280;40363;52.270;10.546;2023-03-04T03:13:18;77846.06;;;-147.06;87.64
54453;BME280;40363;52.270;10.546;2023-03-04T03:15:45;77839.91;;;-147.06;87.71
54453;BME280;40363;52.270;10.546;2023-03-04T03:18:13;77841.97;;;-147.06;87.89
54453;BME280;40363;52.270;10.546;2023-03-04T03:20:40;77852.25;;;-147.06;88.16
54453;BME280;40363;52.270;10.546;2023-03-04T03:23:06;77852.25;;;-147.06;88.57
54453;BME280;40363;52.270;10.546;2023-03-04T03:25:33;77837.84;;;-147.06;88.71
54453;BME280;40363;52.270;10.546;2023-03-04T03:28:00;77827.56;;;-147.06;88.88
54453;BME280;40363;52.270;10.546;2023-03-04T03:30:26;77837.84;;;-147.06;89.00
54453;BME280;40363;52.270;10.546;2023-03-04T03:32:53;77831.69;;;-147.06;89.21
54453;BME280;40363;52.270;10.546;2023-03-04T03:35:21;77839.91;;;-147.06;89.71
54453;BME280;40363;52.270;10.546;2023-03-04T03:37:48;77837.84;;;-147.06;90.12
54453;BME280;40363;52.270;10.546;2023-03-04T03:40:15;77831.69;;;-147.06;90.26
54453;BME280;40363;52.270;10.546;2023-03-04T03:42:41;77837.84;;;-147.06;90.31
54453;BME280;40363;52.270;10.546;2023-03-04T03:45:09;77835.78;;;-147.06;90.43
54453;BME280;40363;52.270;10.546;2023-03-04T03:47:37;77821.41;;;-147.06;90.37
54453;BME280;40363;52.270;10.546;2023-03-04T03:50:04;77841.97;;;-147.06;91.17
54453;BME280;40363;52.270;10.546;2023-03-04T03:52:32;77833.72;;;-147.06;91.17
54453;BME280;40363;52.270;10.546;2023-03-04T03:54:59;77833.72;;;-147.06;91.28
54453;BME280;40363;52.270;10.546;2023-03-04T03:57:27;77831.69;;;-147.06;91.63
54453;BME280;40363;52.270;10.546;2023-03-04T03:59:53;77841.97;;;-147.06;92.45
54453;BME280;40363;52.270;10.546;2023-03-04T04:02:20;77835.78;;;-147.06;92.40
54453;BME280;40363;52.270;10.546;2023-03-04T04:04:47;77833.72;;;-147.06;92.90
54453;BME280;40363;52.270;10.546;2023-03-04T04:07:14;77841.97;;;-147.06;93.13
54453;BME280;40363;52.270;10.546;2023-03-04T04:09:42;77831.69;;;-147.06;93.46
54453;BME280;40363;52.270;10.546;2023-03-04T04:12:10;77835.78;;;-147.06;93.41
54453;BME280;40363;52.270;10.546;2023-03-04T04:14:39;77823.44;;;-147.06;93.33
54453;BME280;40363;52.270;10.546;2023-03-04T04:17:05;77827.56;;;-147.06;93.29
54453;BME280;40363;52.270;10.546;2023-03-04T04:19:32;77817.28;;;-147.06;93.26
54453;BME280;40363;52.270;10.546;2023-03-04T04:21:59;77823.44;;;-147.06;93.25
54453;BME280;40363;52.270;10.546;2023-03-04T04:24:25;77817.28;;;-147.06;92.95
54453;BME280;40363;52.270;10.546;2023-03-04T04:26:53;77819.34;;;-147.06;93.05
54453;BME280;40363;52.270;10.546;2023-03-04T04:29:20;77813.16;;;-147.06;92.96
54453;BME280;40363;52.270;10.546;2023-03-04T04:31:47;77809.06;;;-147.06;93.37
54453;BME280;40363;52.270;10.546;2023-03-04T04:34:14;77807.00;;;-147.06;93.28
54453;BME280;40363;52.270;10.546;2023-03-04T04:36:40;77815.22;;;-147.06;93.63
54453;BME280;40363;52.270;10.546;2023-03-04T04:39:07;77815.22;;;-147.06;93.70
54453;BME280;40363;52.270;10.546;2023-03-04T04:41:39;77813.16;;;-147.06;93.58
54453;BME280;40363;52.270;10.546;2023-03-04T04:44:07;77809.06;;;-147.06;93.81
54453;BME280;40363;52.270;10.546;2023-03-04T04:46:34;77815.22;;;-147.06;94.29
54453;BME280;40363;52.270;10.546;2023-03-04T04:49:01;77804.94;;;-147.06;94.49
54453;BME280;40363;52.270;10.546;2023-03-04T04:51:28;77813.16;;;-147.06;94.37
54453;BME280;40363;52.270;10.546;2023-03-04T04:53:54;77815.22;;;-147.06;94.58
54453;BME280;40363;52.270;10.546;2023-03-04T04:56:23;77811.13;;;-147.06;95.09
54453;BME280;40363;52.270;10.546;2023-03-04T04:58:51;77809.06;;;-147.06;95.38
54453;BME280;40363;52.270;10.546;2023-03-04T05:01:19;77813.16;;;-147.06;95.74
54453;BME280;40363;52.270;10.546;2023-03-04T05:03:46;77809.06;;;-147.06;95.91
54453;BME280;40363;52.270;10.546;2023-03-04T05:06:15;77825.50;;;-147.06;96.06
54453;BME280;40363;52.270;10.546;2023-03-04T05:08:42;77817.28;;;-147.06;96.09
54453;BME280;40363;52.270;10.546;2023-03-04T05:11:08;77809.06;;;-147.06;96.10
54453;BME280;40363;52.270;10.546;2023-03-04T05:13:35;77815.22;;;-147.06;96.11
54453;BME280;40363;52.270;10.546;2023-03-04T05:16:02;77821.41;;;-147.06;96.44
54453;BME280;40363;52.270;10.546;2023-03-04T05:18:31;77829.63;;;-147.06;96.94
54453;BME280;40363;52.270;10.546;2023-03-04T05:20:59;77821.41;;;-147.06;97.40
54453;BME280;40363;52.270;10.546;2023-03-04T05:23:30;77813.16;;;-147.06;97.64
54453;BME280;40363;52.270;10.546;2023-03-04T05:25:57;77817.28;;;-147.06;97.78
54453;BME280;40363;52.270;10.546;2023-03-04T05:28:24;77809.06;;;-147.06;97.89
54453;BME280;40363;52.270;10.546;2023-03-04T05:30:51;77821.41;;;-147.06;98.52
54453;BME280;40363;52.270;10.546;2023-03-04T05:33:18;77811.13;;;-147.06;98.39
54453;BME280;40363;52.270;10.546;2023-03-04T05:35:47;77807.00;;;-147.06;98.58
54453;BME280;40363;52.270;10.546;2023-03-04T05:38:16;77817.28;;;-147.06;98.78
54453;BME280;40363;52.270;10.546;2023-03-04T05:40:43;77804.94;;;-147.06;98.62
54453;BME280;40363;52.270;10.546;2023-03-04T05:43:10;77815.22;;;-147.06;98.46
54453;BME280;40363;52.270;10.546;2023-03-04T05:45:38;77811.13;;;-147.06;98.39
54453;BME280;40363;52.270;10.546;2023-03-04T05:48:06;77802.88;;;-147.06;98.64
54453;BME280;40363;52.270;10.546;2023-03-04T05:50:33;77807.00;;;-147.06;98.67
54453;BME280;40363;52.270;10.546;2023-03-04T05:53:02;77809.06;;;-147.06;98.87
54453;BME280;40363;52.270;10.546;2023-03-04T05:55:28;77813.16;;;-147.06;98.92
54453;BME280;40363;52.270;10.546;2023-03-04T05:57:55;77817.28;;;-147.06;99.28
54453;BME280;40363;52.270;10.546;2023-03-04T06:00:22;77829.63;;;-147.06;99.52
54453;BME280;40363;52.270;10.546;2023-03-04T06:02:49;77829.63;;;-147.06;99.73
54453;BME280;40363;52.270;10.546;2023-03-04T06:05:17;77825.50;;;-147.06;100.00
54453;BME280;40363;52.270;10.546;2023-03-04T06:07:43;77833.72;;;-147.06;100.00
54453;BME280;40363;52.270;10.546;2023-03-04T06:10:13;77833.72;;;-147.06;100.00
54453;BME280;40363;52.270;10.546;2023-03-04T06:12:41;77835.78;;;-147.06;100.00
54453;BME280;40363;52.270;10.546;2023-03-04T06:15:08;77837.84;;;-147.06;100.00
54453;BME280;40363;52.270;10.546;2023-03-04T06:17:36;77835.78;;;-147.06;100.00
54453;BME280;40363;52.270;10.546;2023-03-04T06:20:03;77833.72;;;-147.06;100.00
54453;BME280;40363;52.270;10.546;2023-03-04T06:22:31;77835.78;;;-147.06;100.00
54453;BME280;40363;52.270;10.546;2023-03-04T06:24:58;77837.84;;;-147.06;100.00
54453;BME280;40363;52.270;10.546;2023-03-04T06:27:26;77841.97;;;-147.06;100.00
54453;BME280;40363;52.270;10.546;2023-03-04T06:29:53;77837.84;;;-147.06;100.00
54453;BME280;40363;52.270;10.546;2023-03-04T06:32:19;77839.91;;;-147.06;100.00
54453;BME280;40363;52.270;10.546;2023-03-04T06:34:46;77841.97;;;-147.06;100.00
54453;BME280;40363;52.270;10.546;2023-03-04T06:37:12;77837.84;;;-147.06;100.00
54453;BME280;40363;52.270;10.546;2023-03-04T06:39:39;77837.84;;;-147.06;100.00
54453;BME280;40363;52.270;10.546;2023-03-04T06:42:06;77841.97;;;-147.06;100.00
54453;BME280;40363;52.270;10.546;2023-03-04T06:44:34;77846.06;;;-147.06;100.00
54453;BME280;40363;52.270;10.546;2023-03-04T06:47:00;77844.00;;;-147.06;100.00
54453;BME280;40363;52.270;10.546;2023-03-04T06:49:27;77846.06;;;-147.06;100.00
54453;BME280;40363;52.270;10.546;2023-03-04T06:51:54;77839.91;;;-147.06;100.00
54453;BME280;40363;52.270;10.546;2023-03-04T06:54:21;77850.19;;;-147.06;100.00
54453;BME280;40363;52.270;10.546;2023-03-04T06:56:47;77850.19;;;-147.06;100.00
54453;BME280;40363;52.270;10.546;2023-03-04T06:59:15;77841.97;;;-147.06;100.00
54453;BME280;40363;52.270;10.546;2023-03-04T07:01:43;77850.19;;;-147.06;100.00
54453;BME280;40363;52.270;10.546;2023-03-04T07:04:11;77831.69;;;-147.06;100.00
54453;BME280;40363;52.270;10.546;2023-03-04T07:06:38;77835.78;;;-147.06;100.00
54453;BME280;40363;52.270;10.546;2023-03-04T07:09:05;77823.44;;;-147.06;100.00
54453;BME280;40363;52.270;10.546;2023-03-04T07:11:31;77827.56;;;-147.06;100.00
54453;BME280;40363;52.270;10.546;2023-03-04T07:13:58;77829.63;;;-147.06;100.00
54453;BME280;40363;52.270;10.546;2023-03-04T07:16:25;77825.50;;;-147.06;100.00
54453;BME280;40363;52.270;10.546;2023-03-04T07:18:53;77815.22;;;-147.06;100.00
54453;BME280;40363;52.270;10.546;2023-03-04T07:21:19;77809.06;;;-147.06;100.00
54453;BME280;40363;52.270;10.546;2023-03-04T07:23:46;77811.13;;;-147.06;100.00
54453;BME280;40363;52.270;10.546;2023-03-04T07:26:12;77819.34;;;-147.06;100.00
54453;BME280;40363;52.270;10.546;2023-03-04T07:28:39;77800.84;;;-147.06;100.00
54453;BME280;40363;52.270;10.546;2023-03-04T07:31:08;77800.84;;;-147.06;100.00
54453;BME280;40363;52.270;10.546;2023-03-04T07:33:35;77804.94;;;-147.06;100.00
54453;BME280;40363;52.270;10.546;2023-03-04T07:36:03;77796.72;;;-147.06;100.00
54453;BME280;40363;52.270;10.546;2023-03-04T07:38:30;77796.72;;;-147.06;100.00
54453;BME280;40363;52.270;10.546;2023-03-04T07:40:57;77790.56;;;-147.06;100.00
54453;BME280;40363;52.270;10.546;2023-03-04T07:43:24;77792.63;;;-147.06;100.00
54453;BME280;40363;52.270;10.546;2023-03-04T07:45:51;77794.66;;;-147.06;100.00
54453;BME280;40363;52.270;10.546;2023-03-04T07:48:17;77784.38;;;-147.06;100.00
54453;BME280;40363;52.270;10.546;2023-03-04T07:50:44;77796.72;;;-147.06;100.00
54453;BME280;40363;52.270;10.546;2023-03-04T07:53:12;77788.50;;;-147.06;100.00
54453;BME280;40363;52.270;10.546;2023-03-04T07:55:38;77786.44;;;-147.06;100.00
54453;BME280;40363;52.270;10.546;2023-03-04T07:58:05;77788.50;;;-147.06;100.00
54453;BME280;40363;52.270;10.546;2023-03-04T08:00:31;77778.22;;;-147.06;100.00
54453;BME280;40363;52.270;10.546;2023-03-04T08:02:58;77788.50;;;-147.06;100.00
54453;BME280;40363;52.270;10.546;2023-03-04T08:05:25;77763.81;;;-147.06;100.00
54453;BME280;40363;52.270;10.546;2023-03-04T08:07:51;77780.28;;;-147.06;100.00
54453;BME280;40363;52.270;10.546;2023-03-04T08:10:23;77757.66;;;-147.06;100.00
54453;BME280;40363;52.270;10.546;2023-03-04T08:12:50;77743.25;;;-147.06;100.00
54453;BME280;40363;52.270;10.546;2023-03-04T08:15:16;77761.78;;;-147.06;100.00
54453;BME280;40363;52.270;10.546;2023-03-04T08:17:43;77745.31;;;-147.06;100.00
54453;BME280;40363;52.270;10.546;2023-03-04T08:20:11;77747.38;;;-147.06;100.00
54453;BME280;40363;52.270;10.546;2023-03-04T08:22:37;77747.38;;;-147.06;100.00
54453;BME280;40363;52.270;10.546;2023-03-04T08:25:04;77755.59;;;-147.06;100.00
54453;BME280;40363;52.270;10.546;2023-03-04T08:27:32;77755.59;;;-147.06;100.00
54453;BME280;40363;52.270;10.546;2023-03-04T08:29:59;77765.88;;;-147.06;100.00
54453;BME280;40363;52.270;10.546;2023-03-04T08:32:26;77755.59;;;-147.06;100.00
54453;BME280;40363;52.270;10.546;2023-03-04T08:34:52;77757.66;;;-147.06;100.00
54453;BME280;40363;52.270;10.546;2023-03-04T08:37:20;77741.22;;;-147.06;100.00
54453;BME280;40363;52.270;10.546;2023-03-04T08:39:47;77749.44;;;-147.06;100.00
54453;BME280;40363;52.270;10.546;2023-03-04T08:42:13;77730.94;;;-147.06;100.00
54453;BME280;40363;52.270;10.546;2023-03-04T08:44:41;77726.81;;;-147.06;100.00
54453;BME280;40363;52.270;10.546;2023-03-04T08:47:08;77718.59;;;-147.06;100.00
54453;BME280;40363;52.270;10.546;2023-03-04T08:49:34;77681.59;;;-147.06;100.00
54453;BME280;40363;52.270;10.546;2023-03-04T08:52:01;77644.59;;;-147.06;100.00
54453;BME280;40363;52.270;10.546;2023-03-04T08:54:28;77624.03;;;-147.06;98.79
54453;BME280;40363;52.270;10.546;2023-03-04T08:56:54;77632.25;;;-147.06;98.65
54453;BME280;40363;52.270;10.546;2023-03-04T08:59:21;77632.25;;;-147.06;98.07
54453;BME280;40363;52.270;10.546;2023-03-04T09:01:49;77636.34;;;-147.06;96.81
54453;BME280;40363;52.270;10.546;2023-03-04T09:04:15;77619.91;;;-147.06;95.45
54453;BME280;40363;52.270;10.546;2023-03-04T09:06:42;77607.56;;;-147.06;94.29
54453;BME280;40363;52.270;10.546;2023-03-04T09:09:09;77607.56;;;-147.06;93.15
54453;BME280;40363;52.270;10.546;2023-03-04T09:11:35;77619.91;;;-147.06;93.25
54453;BME280;40363;52.270;10.546;2023-03-04T09:14:02;77599.34;;;-147.06;92.83
54453;BME280;40363;52.270;10.546;2023-03-04T09:16:29;77605.50;;;-147.06;92.92
54453;BME280;40363;52.270;10.546;2023-03-04T09:18:56;77574.69;;;-147.06;92.65
54453;BME280;40363;52.270;10.546;2023-03-04T09:21:23;77601.41;;;-147.06;92.30
54453;BME280;40363;52.270;10.546;2023-03-04T09:23:50;77589.06;;;-147.06;91.93
54453;BME280;40363;52.270;10.546;2023-03-04T09:26:20;77617.84;;;-147.06;93.49
54453;BME280;40363;52.270;10.546;2023-03-04T09:28:49;77609.63;;;-147.06;94.32
54453;BME280;40363;52.270;10.546;2023-03-04T09:31:16;77611.69;;;-147.06;94.86
54453;BME280;40363;52.270;10.546;2023-03-04T09:33:42;77619.91;;;-147.06;95.09
54453;BME280;40363;52.270;10.546;2023-03-04T09:36:12;77609.63;;;-147.06;95.30
54453;BME280;40363;52.270;10.546;2023-03-04T09:38:40;77624.03;;;-147.06;95.69
54453;BME280;40363;52.270;10.546;2023-03-04T09:41:08;77624.03;;;-147.06;96.12
54453;BME280;40363;52.270;10.546;2023-03-04T09:43:37;77617.84;;;-147.06;96.12
54453;BME280;40363;52.270;10.546;2023-03-04T09:46:08;77624.03;;;-147.06;95.75
54453;BME280;40363;52.270;10.546;2023-03-04T09:48:43;77607.56;;;-147.06;94.94
54453;BME280;40363;52.270;10.546;2023-03-04T09:51:19;77615.78;;;-147.06;95.38
54453;BME280;40363;52.270;10.546;2023-03-04T09:53:51;77587.00;;;-147.06;95.22
54453;BME280;40363;52.270;10.546;2023-03-04T09:56:21;77570.56;;;-147.06;95.14
54453;BME280;40363;52.270;10.546;2023-03-04T09:58:56;77570.56;;;-147.06;94.10
54453;BME280;40363;52.270;10.546;2023-03-04T10:01:30;77568.50;;;-147.06;93.57
54453;BME280;40363;52.270;10.546;2023-03-04T10:04:02;77566.44;;;-147.06;93.74
54453;BME280;40363;52.270;10.546;2023-03-04T10:06:33;77599.34;;;-147.06;94.07
54453;BME280;40363;52.270;10.546;2023-03-04T10:09:04;77595.25;;;-147.06;95.44
54453;BME280;40363;52.270;10.546;2023-03-04T10:11:34;77597.28;;;-147.06;96.15
54453;BME280;40363;52.270;10.546;2023-03-04T10:14:13;77603.47;;;-147.06;97.52
54453;BME280;40363;52.270;10.546;2023-03-04T10:16:42;77576.72;;;-147.06;97.34
54453;BME280;40363;52.270;10.546;2023-03-04T10:19:27;77572.63;;;-147.06;97.67
54453;BME280;40363;52.270;10.546;2023-03-04T10:21:56;77552.06;;;-147.06;97.42
54453;BME280;40363;52.270;10.546;2023-03-04T10:24:27;77531.50;;;-147.06;97.02
54453;BME280;40363;52.270;10.546;2023-03-04T10:26:57;77533.56;;;-147.06;96.44
54453;BME280;40363;52.270;10.546;2023-03-04T10:29:27;77529.44;;;-147.06;96.55
54453;BME280;40363;52.270;10.546;2023-03-04T10:31:55;77545.91;;;-147.06;97.08
54453;BME280;40363;52.270;10.546;2023-03-04T10:34:22;77558.22;;;-147.06;97.42
54453;BME280;40363;52.270;10.546;2023-03-04T10:36:57;77568.50;;;-147.06;98.10
54453;BME280;40363;52.270;10.546;2023-03-04T10:39:26;77562.34;;;-147.06;97.73
54453;BME280;40363;52.270;10.546;2023-03-04T10:41:56;77582.91;;;-147.06;98.55
54453;BME280;40363;52.270;10.546;2023-03-04T10:44:23;77605.50;;;-147.06;99.62
54453;BME280;40363;52.270;10.546;2023-03-04T10:46:52;77613.75;;;-147.06;100.00
54453;BME280;40363;52.270;10.546;2023-03-04T10:49:20;77591.13;;;-147.06;99.91
54453;BME280;40363;52.270;10.546;2023-03-04T10:51:50;77570.56;;;-147.06;98.69
54453;BME280;40363;52.270;10.546;2023-03-04T10:54:30;77556.19;;;-147.06;98.40
54453;BME280;40363;52.270;10.546;2023-03-04T10:57:00;77545.91;;;-147.06;97.50
54453;BME280;40363;52.270;10.546;2023-03-04T10:59:41;77521.22;;;-147.06;95.58
54453;BME280;40363;52.270;10.546;2023-03-04T11:02:15;77529.44;;;-147.06;95.21
54453;BME280;40363;52.270;10.546;2023-03-04T11:04:48;77529.44;;;-147.06;93.81
54453;BME280;40363;52.270;10.546;2023-03-04T11:07:15;77525.34;;;-147.06;93.38
54453;BME280;40363;52.270;10.546;2023-03-04T11:09:43;77533.56;;;-147.06;92.66
54453;BME280;40363;52.270;10.546;2023-03-04T11:12:12;77523.28;;;-147.06;91.96
54453;BME280;40363;52.270;10.546;2023-03-04T11:14:40;77504.78;;;-147.06;90.59
54453;BME280;40363;52.270;10.546;2023-03-04T11:17:18;77443.09;;;-147.06;88.21
54453;BME280;40363;52.270;10.546;2023-03-04T11:19:47;77428.72;;;-147.06;87.00
54453;BME280;40363;52.270;10.546;2023-03-04T11:22:17;77445.16;;;-147.06;87.80
54453;BME280;40363;52.270;10.546;2023-03-04T11:24:51;77473.94;;;-147.06;88.30
54453;BME280;40363;52.270;10.546;2023-03-04T11:27:23;77498.59;;;-147.06;89.69
54453;BME280;40363;52.270;10.546;2023-03-04T11:29:57;77502.72;;;-147.06;90.00
54453;BME280;40363;52.270;10.546;2023-03-04T11:32:27;77478.06;;;-147.06;90.13
54453;BME280;40363;52.270;10.546;2023-03-04T11:34:58;77469.81;;;-147.06;90.28
54453;BME280;40363;52.270;10.546;2023-03-04T11:37:30;77436.94;;;-147.06;90.62
54453;BME280;40363;52.270;10.546;2023-03-04T11:40:07;77436.94;;;-147.06;90.19
54453;BME280;40363;52.270;10.546;2023-03-04T11:42:40;77447.22;;;-147.06;91.31
54453;BME280;40363;52.270;10.546;2023-03-04T11:45:11;77480.09;;;-147.06;92.84
54453;BME280;40363;52.270;10.546;2023-03-04T11:47:47;77541.78;;;-147.06;92.30
54453;BME280;40363;52.270;10.546;2023-03-04T11:50:26;77543.84;;;-147.06;90.33
54453;BME280;40363;52.270;10.546;2023-03-04T11:53:22;77513.00;;;-147.06;88.38
54453;BME280;40363;52.270;10.546;2023-03-04T11:56:08;77500.66;;;-147.06;85.54
54453;BME280;40363;52.270;10.546;2023-03-04T12:01:26;77441.03;;;-147.06;84.33
54453;BME280;40363;52.270;10.546;2023-03-04T12:04:03;77434.88;;;-147.06;84.34
54453;BME280;40363;52.270;10.546;2023-03-04T12:06:40;77418.44;;;-147.06;83.09
54453;BME280;40363;52.270;10.546;2023-03-04T12:09:19;77373.19;;;-147.06;81.47
54453;BME280;40363;52.270;10.546;2023-03-04T12:11:58;77395.81;;;-147.06;79.71
54453;BME280;40363;52.270;10.546;2023-03-04T12:14:33;77373.19;;;-147.06;78.77
54453;BME280;40363;52.270;10.546;2023-03-04T12:20:19;77385.53;;;-147.06;77.75
54453;BME280;40363;52.270;10.546;2023-03-04T12:22:57;77406.09;;;-147.06;78.57
54453;BME280;40363;52.270;10.546;2023-03-04T12:25:35;77430.75;;;-147.06;78.66
54453;BME280;40363;52.270;10.546;2023-03-04T12:28:16;77412.25;;;-147.06;78.84
54453;BME280;40363;52.270;10.546;2023-03-04T12:30:58;77434.88;;;-147.06;79.43
54453;BME280;40363;52.270;10.546;2023-03-04T12:33:32;77467.78;;;-147.06;79.86
54453;BME280;40363;52.270;10.546;2023-03-04T12:36:13;77453.38;;;-147.06;80.72
54453;BME280;40363;52.270;10.546;2023-03-04T12:38:59;77461.59;;;-147.06;78.77
54453;BME280;40363;52.270;10.546;2023-03-04T12:41:38;77424.59;;;-147.06;77.03